createdAt,value
2023-05-04T00:00:33.485Z,18.50
2023-05-04T00:03:01.826Z,18.50
2023-05-04T00:05:30.132Z,18.50
2023-05-04T00:07:59.691Z,18.50
2023-05-04T00:10:28.258Z,18.50
2023-05-04T00:12:56.644Z,18.50
2023-05-04T00:15:24.995Z,18.50
2023-05-04T00:17:53.213Z,18.50
2023-05-04T00:20:21.610Z,18.50
2023-05-04T00:22:49.858Z,18.50
2023-05-04T00:25:19.595Z,18.50
2023-05-04T00:27:47.753Z,18.40
2023-05-04T00:30:16.618Z,18.50
2023-05-04T00:32:44.834Z,18.50
2023-05-04T00:35:13.144Z,18.50
2023-05-04T00:37:43.767Z,18.50
2023-05-04T00:40:12.670Z,18.50
2023-05-04T00:42:42.115Z,18.40
2023-05-04T00:45:11.017Z,18.50
2023-05-04T00:47:39.213Z,18.40
2023-05-04T00:50:09.298Z,18.50
2023-05-04T00:52:38.642Z,18.50
2023-05-04T00:55:07.444Z,18.40
2023-05-04T00:57:35.686Z,18.50
2023-05-04T01:00:06.322Z,18.50
2023-05-04T01:02:34.828Z,18.40
2023-05-04T01:05:04.010Z,18.40
2023-05-04T01:07:48.440Z,18.50
2023-05-04T01:10:21.998Z,18.40
2023-05-04T01:12:53.692Z,18.40
2023-05-04T01:15:24.754Z,18.50
2023-05-04T01:17:52.817Z,18.50
2023-05-04T01:20:20.815Z,18.50
2023-05-04T01:22:50.188Z,18.40
2023-05-04T01:25:18.559Z,18.50
2023-05-04T01:27:48.002Z,18.50
2023-05-04T01:30:18.058Z,18.50
2023-05-04T01:32:46.390Z,18.50
2023-05-04T01:35:14.652Z,18.50
2023-05-04T01:37:42.816Z,18.50
2023-05-04T01:40:12.842Z,18.50
2023-05-04T01:42:40.805Z,18.50
2023-05-04T01:45:09.503Z,18.50
2023-05-04T01:47:37.490Z,18.50
2023-05-04T01:50:07.085Z,18.50
2023-05-04T01:52:35.132Z,18.50
2023-05-04T01:55:03.132Z,18.50
2023-05-04T01:57:32.477Z,18.50
2023-05-04T02:00:00.589Z,18.50
2023-05-04T02:02:28.625Z,18.50
2023-05-04T02:04:56.652Z,18.50
2023-05-04T02:07:24.606Z,18.60
2023-05-04T02:09:52.571Z,18.50
2023-05-04T02:12:20.550Z,18.50
2023-05-04T02:14:49.843Z,18.50
2023-05-04T02:17:17.863Z,18.50
2023-05-04T02:19:45.880Z,18.50
2023-05-04T02:22:13.953Z,18.50
2023-05-04T02:24:42.084Z,18.50
2023-05-04T02:27:10.151Z,18.50
2023-05-04T02:29:38.376Z,18.50
2023-05-04T02:32:07.861Z,18.50
2023-05-04T02:34:36.451Z,18.50
2023-05-04T02:37:07.116Z,18.50
2023-05-04T02:39:35.361Z,18.50
2023-05-04T02:42:03.351Z,18.50
2023-05-04T02:44:31.503Z,18.50
2023-05-04T02:46:59.455Z,18.50
2023-05-04T02:49:28.845Z,18.50
2023-05-04T02:51:56.795Z,18.50
2023-05-04T02:54:24.763Z,18.50
2023-05-04T02:56:52.691Z,18.50
2023-05-04T02:59:20.832Z,18.50
2023-05-04T03:01:48.888Z,18.50
2023-05-04T03:04:16.980Z,18.50
2023-05-04T03:06:47.503Z,18.50
2023-05-04T03:09:15.426Z,18.50
2023-05-04T03:11:43.447Z,18.50
2023-05-04T03:14:11.382Z,18.50
2023-05-04T03:16:39.444Z,18.50
2023-05-04T03:19:07.559Z,18.50
2023-05-04T03:21:35.592Z,18.50
2023-05-04T03:24:05.175Z,18.50
2023-05-04T03:26:33.068Z,18.50
2023-05-04T03:29:01.018Z,18.50
2023-05-04T03:31:29.104Z,18.50
2023-05-04T03:33:57.087Z,18.50
2023-05-04T03:36:25.037Z,18.50
2023-05-04T03:38:52.960Z,18.50
2023-05-04T03:41:22.286Z,18.50
2023-05-04T03:43:50.288Z,18.50
2023-05-04T03:46:18.408Z,18.50
2023-05-04T03:48:46.416Z,18.50
2023-05-04T03:51:14.471Z,18.50
2023-05-04T03:53:44.641Z,18.50
2023-05-04T03:56:13.037Z,18.50
2023-05-04T03:58:42.542Z,18.50
2023-05-04T04:01:10.669Z,18.50
2023-05-04T04:03:39.098Z,18.50
2023-05-04T04:06:08.633Z,18.50
2023-05-04T04:08:36.733Z,18.50
2023-05-04T04:11:04.823Z,18.50
2023-05-04T04:13:32.885Z,18.50
2023-05-04T04:16:02.265Z,18.50
2023-05-04T04:18:30.232Z,18.50
2023-05-04T04:20:58.284Z,18.50
2023-05-04T04:23:26.317Z,18.50
2023-05-04T04:25:54.514Z,18.50
2023-05-04T04:28:22.979Z,18.50
2023-05-04T04:30:50.947Z,18.50
2023-05-04T04:33:20.242Z,18.50
2023-05-04T04:35:48.246Z,18.50
2023-05-04T04:38:16.290Z,18.50
2023-05-04T04:40:44.330Z,18.50
2023-05-04T04:43:13.189Z,18.50
2023-05-04T04:45:41.575Z,18.50
2023-05-04T04:48:09.603Z,18.50
2023-05-04T04:50:40.845Z,18.50
2023-05-04T04:53:08.750Z,18.50
2023-05-04T04:55:36.807Z,18.50
2023-05-04T04:58:04.915Z,18.50
2023-05-04T05:00:32.914Z,18.50
2023-05-04T05:03:01.109Z,18.50
2023-05-04T05:05:31.545Z,18.50
2023-05-04T05:08:01.580Z,18.50
2023-05-04T05:10:29.642Z,18.50
2023-05-04T05:12:57.856Z,18.50
2023-05-04T05:15:25.899Z,18.50
2023-05-04T05:17:53.944Z,18.50
2023-05-04T05:20:22.059Z,18.50
2023-05-04T05:22:51.718Z,18.50
2023-05-04T05:25:21.216Z,18.50
2023-05-04T05:27:49.982Z,18.50
2023-05-04T05:30:18.054Z,18.50
2023-05-04T05:32:48.993Z,18.50
2023-05-04T05:35:17.496Z,18.50
2023-05-04T05:37:45.578Z,18.50
2023-05-04T05:40:14.302Z,18.50
2023-05-04T05:42:44.141Z,18.50
2023-05-04T05:45:13.064Z,18.50
2023-05-04T05:47:41.472Z,18.50
2023-05-04T05:50:09.875Z,18.60
2023-05-04T05:52:38.325Z,18.60
2023-05-04T05:55:06.996Z,18.60
2023-05-04T05:57:35.614Z,18.70
2023-05-04T06:00:06.224Z,18.70
2023-05-04T06:02:34.520Z,18.70
2023-05-04T06:05:02.976Z,18.80
2023-05-04T06:07:31.257Z,18.80
2023-05-04T06:09:59.364Z,18.80
2023-05-04T06:12:27.429Z,18.90
2023-05-04T06:14:55.580Z,18.90
2023-05-04T06:17:25.074Z,18.90
2023-05-04T06:19:53.135Z,18.90
2023-05-04T06:22:21.427Z,18.90
2023-05-04T06:24:49.662Z,19.00
2023-05-04T06:27:17.892Z,19.00
2023-05-04T06:29:46.688Z,19.00
2023-05-04T06:32:14.891Z,19.00
2023-05-04T06:34:44.556Z,19.00
2023-05-04T06:37:14.139Z,19.10
2023-05-04T06:39:44.169Z,19.00
2023-05-04T06:42:12.795Z,19.10
2023-05-04T06:44:40.838Z,19.10
2023-05-04T06:47:08.871Z,19.10
2023-05-04T06:49:37.577Z,19.10
2023-05-04T06:52:07.238Z,19.20
2023-05-04T06:54:35.809Z,19.20
2023-05-04T06:57:04.493Z,19.20
2023-05-04T06:59:32.566Z,19.20
2023-05-04T07:02:00.713Z,19.30
2023-05-04T07:04:28.807Z,19.30
2023-05-04T07:06:57.214Z,19.30
2023-05-04T07:09:26.885Z,19.30
2023-05-04T07:11:54.953Z,19.40
2023-05-04T07:14:22.970Z,19.30
2023-05-04T07:16:51.087Z,19.40
2023-05-04T07:19:19.186Z,19.30
2023-05-04T07:21:47.760Z,19.40
2023-05-04T07:24:15.852Z,19.30
2023-05-04T07:26:45.242Z,19.30
2023-05-04T07:29:13.326Z,19.40
2023-05-04T07:31:41.486Z,19.40
2023-05-04T07:34:09.576Z,19.40
2023-05-04T07:36:37.762Z,19.40
2023-05-04T07:39:05.789Z,19.40
2023-05-04T07:41:33.999Z,19.40
2023-05-04T07:44:05.725Z,19.40
2023-05-04T07:46:34.062Z,19.40
2023-05-04T07:49:03.293Z,19.50
2023-05-04T07:51:31.345Z,19.50
2023-05-04T07:54:00.170Z,19.50
2023-05-04T07:56:28.139Z,19.50
2023-05-04T07:58:56.159Z,19.50
2023-05-04T08:01:26.191Z,19.60
2023-05-04T08:03:54.296Z,19.60
2023-05-04T08:06:22.642Z,19.50
2023-05-04T08:08:52.714Z,19.50
2023-05-04T08:11:21.413Z,19.60
2023-05-04T08:13:49.918Z,19.60
2023-05-04T08:16:18.032Z,19.60
2023-05-04T08:18:47.448Z,19.60
2023-05-04T08:21:15.737Z,19.70
2023-05-04T08:23:43.759Z,19.60
2023-05-04T08:26:11.776Z,19.60
2023-05-04T08:28:40.660Z,19.60
2023-05-04T08:31:09.036Z,19.60
2023-05-04T08:33:37.108Z,19.60
2023-05-04T08:36:07.745Z,19.60
2023-05-04T08:38:35.934Z,19.60
2023-05-04T08:41:04.484Z,19.60
2023-05-04T08:43:32.841Z,19.60
2023-05-04T08:46:00.887Z,19.60
2023-05-04T08:48:29.013Z,19.70
2023-05-04T08:50:58.837Z,19.60
2023-05-04T08:53:28.446Z,19.70
2023-05-04T08:55:57.287Z,19.60
2023-05-04T08:58:26.222Z,19.70
2023-05-04T09:00:54.329Z,19.60
2023-05-04T09:03:22.871Z,19.70
2023-05-04T09:05:52.569Z,19.70
2023-05-04T09:08:21.247Z,19.60
2023-05-04T09:10:50.776Z,19.60
2023-05-04T09:13:18.844Z,19.70
2023-05-04T09:15:54.835Z,19.60
2023-05-04T09:18:23.190Z,19.70
2023-05-04T09:20:51.311Z,19.70
2023-05-04T09:23:19.830Z,19.60
2023-05-04T09:25:48.581Z,19.70
2023-05-04T09:28:18.323Z,19.70
2023-05-04T09:30:46.843Z,19.60
2023-05-04T09:33:14.941Z,19.70
2023-05-04T09:35:44.467Z,19.70
2023-05-04T09:38:12.536Z,19.70
2023-05-04T09:40:42.205Z,19.60
2023-05-04T09:43:10.895Z,19.60
2023-05-04T09:45:43.979Z,19.60
2023-05-04T09:48:19.239Z,19.60
2023-05-04T09:50:52.169Z,19.60
2023-05-04T09:53:22.179Z,19.70
2023-05-04T09:55:54.702Z,19.60
2023-05-04T09:58:22.932Z,19.60
2023-05-04T10:00:52.902Z,19.70
2023-05-04T10:03:21.184Z,19.70
2023-05-04T10:05:49.681Z,19.60
2023-05-04T10:08:18.249Z,19.60
2023-05-04T10:10:46.744Z,19.60
2023-05-04T10:13:14.926Z,19.60
2023-05-04T10:15:50.089Z,19.60
2023-05-04T10:18:25.582Z,19.60
2023-05-04T10:21:09.627Z,19.60
2023-05-04T10:24:07.507Z,19.60
2023-05-04T10:26:43.322Z,19.60
2023-05-04T10:29:14.480Z,19.60
2023-05-04T10:31:43.471Z,19.60
2023-05-04T10:34:13.297Z,19.60
2023-05-04T10:36:42.473Z,19.60
2023-05-04T10:39:18.902Z,19.60
2023-05-04T10:41:57.388Z,19.60
2023-05-04T10:44:25.486Z,19.60
2023-05-04T10:47:00.872Z,19.60
2023-05-04T10:49:30.540Z,19.50
2023-05-04T10:52:09.471Z,19.60
2023-05-04T10:54:37.749Z,19.60
2023-05-04T10:57:06.566Z,19.50
2023-05-04T10:59:36.612Z,19.60
2023-05-04T11:02:05.761Z,19.50
2023-05-04T11:04:35.727Z,19.50
2023-05-04T11:07:05.127Z,19.60
2023-05-04T11:09:36.905Z,19.50
2023-05-04T11:12:05.180Z,19.60
2023-05-04T11:14:37.821Z,19.50
2023-05-04T11:17:23.935Z,19.50
2023-05-04T11:19:56.180Z,19.50
2023-05-04T11:22:24.333Z,19.50
2023-05-04T11:24:54.259Z,19.60
2023-05-04T11:27:24.400Z,19.60
2023-05-04T11:29:58.616Z,19.50
2023-05-04T11:32:36.246Z,19.60
2023-05-04T11:35:06.815Z,19.60
2023-05-04T11:37:39.514Z,19.60
2023-05-04T11:40:10.902Z,19.60
2023-05-04T11:42:39.995Z,19.50
2023-05-04T11:45:09.806Z,19.60
2023-05-04T11:47:38.085Z,19.60
2023-05-04T11:50:08.581Z,19.60
2023-05-04T11:52:37.077Z,19.60
2023-05-04T11:55:05.565Z,19.60
2023-05-04T11:57:37.179Z,19.70
2023-05-04T12:00:06.987Z,19.60
2023-05-04T12:02:35.570Z,19.60
2023-05-04T12:05:05.474Z,19.70
2023-05-04T12:07:37.378Z,19.70
2023-05-04T12:10:05.956Z,19.70
2023-05-04T12:12:37.247Z,19.70
2023-05-04T12:15:05.860Z,19.70
2023-05-04T12:17:41.431Z,19.70
2023-05-04T12:20:09.903Z,19.70
2023-05-04T12:22:39.885Z,19.70
2023-05-04T12:25:09.371Z,19.70
2023-05-04T12:27:41.558Z,19.80
2023-05-04T12:30:10.133Z,19.70
2023-05-04T12:32:38.190Z,19.80
2023-05-04T12:35:06.953Z,19.80
2023-05-04T12:37:35.124Z,19.80
2023-05-04T12:40:11.299Z,19.80
2023-05-04T12:42:45.757Z,19.70
2023-05-04T12:45:14.307Z,19.70
2023-05-04T12:47:42.563Z,19.80
2023-05-04T12:50:11.233Z,19.80
2023-05-04T12:52:40.779Z,19.80
2023-05-04T12:55:10.652Z,19.80
2023-05-04T12:57:39.733Z,19.80
2023-05-04T13:00:10.145Z,19.80
2023-05-04T13:02:38.570Z,19.80
2023-05-04T13:05:07.575Z,19.80
2023-05-04T13:07:36.450Z,19.70
2023-05-04T13:10:05.011Z,19.80
2023-05-04T13:12:34.892Z,19.80
2023-05-04T13:15:03.238Z,19.70
2023-05-04T13:17:34.024Z,19.70
2023-05-04T13:20:04.880Z,19.70
2023-05-04T13:22:33.504Z,19.80
2023-05-04T13:25:01.520Z,19.80
2023-05-04T13:27:30.179Z,19.80
2023-05-04T13:30:02.063Z,19.80
2023-05-04T13:32:30.247Z,19.80
2023-05-04T13:34:58.628Z,19.80
2023-05-04T13:37:26.827Z,19.70
2023-05-04T13:39:54.977Z,19.80
2023-05-04T13:42:23.056Z,19.80
2023-05-04T13:44:51.398Z,19.70
2023-05-04T13:47:21.178Z,19.80
2023-05-04T13:49:49.353Z,19.80
2023-05-04T13:52:17.445Z,19.70
2023-05-04T13:54:45.597Z,19.70
2023-05-04T13:57:13.667Z,19.70
2023-05-04T13:59:48.792Z,19.70
2023-05-04T14:02:28.127Z,19.70
2023-05-04T14:04:56.175Z,19.70
2023-05-04T14:07:24.173Z,19.80
2023-05-04T14:09:52.423Z,19.80
2023-05-04T14:12:20.852Z,19.70
2023-05-04T14:14:49.019Z,19.70
2023-05-04T14:17:17.609Z,19.80
2023-05-04T14:19:47.243Z,19.80
2023-05-04T14:22:17.293Z,19.80
2023-05-04T14:24:45.535Z,19.70
2023-05-04T14:27:13.617Z,19.80
2023-05-04T14:29:41.823Z,19.70
2023-05-04T14:32:10.051Z,19.80
2023-05-04T14:34:38.214Z,19.80
2023-05-04T14:37:07.692Z,19.80
2023-05-04T14:39:36.592Z,19.80
2023-05-04T14:42:05.085Z,19.80
2023-05-04T14:44:33.178Z,19.80
2023-05-04T14:47:04.719Z,19.80
2023-05-04T14:49:37.261Z,19.80
2023-05-04T14:52:07.282Z,19.80
2023-05-04T14:54:35.360Z,19.80
2023-05-04T14:57:03.629Z,19.90
2023-05-04T14:59:31.657Z,19.90
2023-05-04T15:01:59.824Z,19.80
2023-05-04T15:04:27.829Z,19.80
2023-05-04T15:06:56.166Z,19.90
2023-05-04T15:09:25.634Z,19.80
2023-05-04T15:11:54.133Z,19.80
2023-05-04T15:14:22.346Z,19.90
2023-05-04T15:16:50.558Z,19.80
2023-05-04T15:19:18.744Z,19.80
2023-05-04T15:21:46.712Z,19.80
2023-05-04T15:24:14.709Z,19.80
2023-05-04T15:26:43.982Z,19.80
2023-05-04T15:29:12.090Z,19.80
2023-05-04T15:31:40.584Z,19.80
2023-05-04T15:34:08.705Z,19.80
2023-05-04T15:36:36.768Z,19.80
2023-05-04T15:39:05.637Z,19.80
2023-05-04T15:41:33.753Z,19.80
2023-05-04T15:44:03.309Z,19.80
2023-05-04T15:46:31.332Z,19.80
2023-05-04T15:48:59.406Z,19.80
2023-05-04T15:51:27.403Z,19.80
2023-05-04T15:53:55.350Z,19.80
2023-05-04T15:56:23.342Z,19.80
2023-05-04T15:58:51.500Z,19.80
2023-05-04T16:01:20.931Z,19.80
2023-05-04T16:03:49.048Z,19.80
2023-05-04T16:06:17.614Z,19.80
2023-05-04T16:08:45.894Z,19.80
2023-05-04T16:11:13.952Z,19.80
2023-05-04T16:13:41.955Z,19.80
2023-05-04T16:16:10.256Z,19.80
2023-05-04T16:18:39.710Z,19.80
2023-05-04T16:21:08.985Z,19.80
2023-05-04T16:23:37.005Z,19.80
2023-05-04T16:26:05.116Z,19.70
2023-05-04T16:28:33.131Z,19.80
2023-05-04T16:31:01.177Z,19.70
2023-05-04T16:33:29.204Z,19.80
2023-05-04T16:35:59.870Z,19.80
2023-05-04T16:38:27.960Z,19.80
2023-05-04T16:40:55.989Z,19.80
2023-05-04T16:43:24.092Z,19.80
2023-05-04T16:45:52.142Z,19.80
2023-05-04T16:48:20.304Z,19.80
2023-05-04T16:50:48.352Z,19.70
2023-05-04T16:53:17.743Z,19.80
2023-05-04T16:55:45.853Z,19.70
2023-05-04T16:58:13.901Z,19.70
2023-05-04T17:00:42.112Z,19.80
2023-05-04T17:03:10.279Z,19.80
2023-05-04T17:05:38.564Z,19.80
2023-05-04T17:08:06.759Z,19.70
2023-05-04T17:10:36.257Z,19.70
2023-05-04T17:13:04.349Z,19.80
2023-05-04T17:15:32.589Z,19.80
2023-05-04T17:18:01.369Z,19.80
2023-05-04T17:20:31.829Z,19.70
2023-05-04T17:23:00.039Z,19.80
2023-05-04T17:25:28.327Z,19.70
2023-05-04T17:27:57.989Z,19.70
2023-05-04T17:30:26.219Z,19.70
2023-05-04T17:32:55.763Z,19.70
2023-05-04T17:35:26.275Z,19.70
2023-05-04T17:37:57.916Z,19.70
2023-05-04T17:40:27.340Z,19.70
2023-05-04T17:42:57.500Z,19.70
2023-05-04T17:45:25.587Z,19.70
2023-05-04T17:47:54.538Z,19.70
2023-05-04T17:50:22.709Z,19.80
2023-05-04T17:52:54.232Z,19.70
2023-05-04T17:55:23.733Z,19.80
2023-05-04T17:57:52.091Z,19.70
2023-05-04T18:00:22.238Z,19.70
2023-05-04T18:02:50.590Z,19.70
2023-05-04T18:05:18.839Z,19.70
2023-05-04T18:07:47.016Z,19.60
2023-05-04T18:10:15.007Z,19.60
2023-05-04T18:12:43.081Z,19.60
2023-05-04T18:15:11.485Z,19.50
2023-05-04T18:17:41.081Z,19.50
2023-05-04T18:20:10.491Z,19.50
2023-05-04T18:22:38.644Z,19.50
2023-05-04T18:25:07.254Z,19.40
2023-05-04T18:27:36.272Z,19.40
2023-05-04T18:30:06.471Z,19.40
2023-05-04T18:32:34.893Z,19.40
2023-05-04T18:35:04.700Z,19.40
2023-05-04T18:37:32.922Z,19.40
2023-05-04T18:40:01.177Z,19.40
2023-05-04T18:42:29.677Z,19.40
2023-05-04T18:44:57.892Z,19.40
2023-05-04T18:47:25.804Z,19.40
2023-05-04T18:49:56.485Z,19.40
2023-05-04T18:52:26.168Z,19.30
2023-05-04T18:54:55.405Z,19.40
2023-05-04T18:57:23.467Z,19.30
2023-05-04T18:59:51.562Z,19.30
2023-05-04T19:02:19.618Z,19.30
2023-05-04T19:04:48.012Z,19.30
2023-05-04T19:07:17.186Z,19.30
2023-05-04T19:09:46.785Z,19.30
2023-05-04T19:12:15.627Z,19.30
2023-05-04T19:14:44.232Z,19.20
2023-05-04T19:17:14.670Z,19.20
2023-05-04T19:19:42.775Z,19.20
2023-05-04T19:22:11.623Z,19.20
2023-05-04T19:24:39.977Z,19.20
2023-05-04T19:27:09.538Z,19.10
2023-05-04T19:29:37.602Z,19.10
2023-05-04T19:32:19.925Z,19.10
2023-05-04T19:34:52.138Z,19.10
2023-05-04T19:37:20.172Z,19.20
2023-05-04T19:39:48.211Z,19.10
2023-05-04T19:42:17.705Z,19.10
2023-05-04T19:44:45.592Z,19.10
2023-05-04T19:47:13.828Z,19.10
2023-05-04T19:49:41.902Z,19.10
2023-05-04T19:52:09.954Z,19.10
2023-05-04T19:54:38.361Z,19.10
2023-05-04T19:57:06.476Z,19.10
2023-05-04T19:59:36.076Z,19.00
2023-05-04T20:02:04.102Z,19.00
2023-05-04T20:04:32.134Z,19.00
2023-05-04T20:07:00.167Z,19.00
2023-05-04T20:09:29.068Z,19.00
2023-05-04T20:11:57.165Z,19.00
2023-05-04T20:14:25.179Z,19.00
2023-05-04T20:16:55.943Z,19.00
2023-05-04T20:19:24.135Z,19.00
2023-05-04T20:21:52.130Z,19.00
2023-05-04T20:24:20.155Z,19.00
2023-05-04T20:26:48.199Z,19.00
2023-05-04T20:29:16.865Z,19.00
2023-05-04T20:31:44.946Z,19.00
2023-05-04T20:34:15.119Z,19.00
2023-05-04T20:36:46.191Z,19.00
2023-05-04T20:39:14.885Z,19.00
2023-05-04T20:41:42.844Z,19.00
2023-05-04T20:44:11.090Z,19.00
2023-05-04T20:46:39.161Z,19.00
2023-05-04T20:49:07.342Z,19.00
2023-05-04T20:51:39.227Z,19.00
2023-05-04T20:54:08.861Z,19.00
2023-05-04T20:56:37.987Z,19.00
2023-05-04T20:59:06.784Z,19.00
2023-05-04T21:01:34.837Z,19.00
2023-05-04T21:04:03.076Z,18.90
2023-05-04T21:06:31.337Z,18.90
2023-05-04T21:09:01.955Z,18.90
2023-05-04T21:11:29.950Z,18.90
2023-05-04T21:13:57.938Z,18.90
2023-05-04T21:16:26.191Z,19.00
2023-05-04T21:18:54.233Z,18.90
2023-05-04T21:21:22.247Z,18.90
2023-05-04T21:23:50.212Z,18.90
2023-05-04T21:26:19.627Z,18.90
2023-05-04T21:28:47.717Z,18.90
2023-05-04T21:31:15.793Z,18.90
2023-05-04T21:33:43.884Z,18.90
2023-05-04T21:36:12.855Z,18.90
2023-05-04T21:38:40.923Z,18.90
2023-05-04T21:41:12.703Z,18.90
2023-05-04T21:43:42.507Z,18.90
2023-05-04T21:46:12.096Z,18.90
2023-05-04T21:48:40.773Z,18.90
2023-05-04T21:51:08.763Z,18.90
2023-05-04T21:53:36.848Z,18.90
2023-05-04T21:56:07.648Z,18.90
2023-05-04T21:58:37.255Z,18.90
2023-05-04T22:01:06.777Z,18.90
2023-05-04T22:03:34.799Z,18.90
2023-05-04T22:06:02.859Z,18.90
2023-05-04T22:08:31.324Z,18.90
2023-05-04T22:10:59.740Z,18.90
2023-05-04T22:13:28.040Z,18.90
2023-05-04T22:15:56.214Z,18.90
2023-05-04T22:18:25.709Z,18.90
2023-05-04T22:20:53.842Z,18.90
2023-05-04T22:23:21.926Z,18.90
2023-05-04T22:25:50.141Z,18.90
2023-05-04T22:28:18.183Z,18.90
2023-05-04T22:30:46.336Z,18.90
2023-05-04T22:33:14.357Z,18.90
2023-05-04T22:35:43.891Z,18.90
2023-05-04T22:38:12.068Z,18.90
2023-05-04T22:40:40.606Z,18.90
2023-05-04T22:43:08.801Z,18.90
2023-05-04T22:45:36.975Z,18.90
2023-05-04T22:48:05.243Z,18.90
2023-05-04T22:50:33.766Z,18.90
2023-05-04T22:53:03.201Z,18.90
2023-05-04T22:55:31.364Z,18.90
2023-05-04T22:57:59.520Z,18.90
2023-05-04T23:00:27.651Z,18.90
2023-05-04T23:02:55.908Z,18.90
2023-05-04T23:05:24.022Z,18.90
2023-05-04T23:07:52.416Z,18.90
2023-05-04T23:10:22.070Z,18.90
2023-05-04T23:12:50.218Z,18.90
2023-05-04T23:15:18.311Z,18.90
2023-05-04T23:17:46.488Z,18.90
2023-05-04T23:20:14.618Z,18.90
2023-05-04T23:22:42.605Z,18.90
2023-05-04T23:25:11.000Z,18.90
2023-05-04T23:27:40.719Z,18.90
2023-05-04T23:30:09.770Z,18.90
2023-05-04T23:32:38.270Z,18.90
2023-05-04T23:35:06.876Z,18.90
2023-05-04T23:37:34.970Z,18.90
2023-05-04T23:40:03.157Z,18.90
2023-05-04T23:42:31.104Z,18.90
2023-05-04T23:45:00.484Z,18.90
2023-05-04T23:47:28.512Z,18.90
2023-05-04T23:49:56.807Z,18.90
2023-05-04T23:52:24.914Z,18.90
2023-05-04T23:54:53.739Z,18.90
2023-05-04T23:57:21.751Z,18.90
2023-05-04T23:59:49.841Z,18.90
